General Aviation Weather

Text Reports

Enter one or more of the following location identifiers separated by a space:

Zip Code, Four-Character ICAO or Three-Character IATA airport codes.

METAR - Aviation Routine Weather Report
UBBB - Baku,
Updated at 12:30 AM GMT on September 24, 2014 (5:30 AM AZST):
METAR UBBB 240030Z 20012KT 9999 SCT012 22/19 Q1005 88CLRD70 NOSIG
TAF - Terminal Area Forecast
UBBB - Baku,
Updated at 12:30 AM GMT on September 24, 2014 (5:30 AM AZST):
TAF UBBB 232243Z 2400/2424 17010KT CAVOK 530003 TX27/2411Z TN17/2401Z
     TEMPO 2400/2404 18016KT SCT012
     BECMG 2404/2406 19022G32KT SCT030 SCT100=
TAF COR UNKL 232000Z 2321/2421 22005MPS 9999 SCT015CB BKN100
     TEMPO 2321/2403 25006G11MPS 3000 -SHRA 530009
     TEMPO 2403/2412 25007G12MPS 3000 -SHRA SCT008 BKN015CB OVC100
     530009=
TAF AMD VMMC 232245Z 2322/2424 34010KT 8000 FEW035
     TEMPO 2322/2404 2800 HZ
     BECMG 2405/2407 15006KT
     BECMG 2421/2423 36010KT 2800 HZ=
Decoded:
ID: UBBB   Baku/Bine Arpt, TB
REPORT TIME: 23 22:43
VALID TIME: 24 September AT 00:00Z to 24 September AT 24:00Z.
INITIAL WX
   WINDS: 170 AT 10
   WEATHER: CAVOK
   TURBULENCE: FREQ MOD CLEAR AIR FROM 0 TO 9
   COMMENTS: TX27/2411Z TN17/2401Z 
TEMPORARY WX FROM 00Z TO 04Z
   WINDS: 180 AT 16
   CLOUDS: 12 SCT
WX BECOMING FROM 04Z TO 06Z
   WINDS: 190 AT 22 GUST 32
   CLOUDS: 30 SCT
   CLOUDS: 100 SCT
   COMMENTS: = 

CORRECTION
INITIAL WX
   WEATHER: UNKL
   COMMENTS: 232000Z 2321/2421 22005MPS 9999 SCT015CB BKN100 
TEMPORARY WX FROM 21Z TO 03Z
   WINDS: 250 AT 11 GUST 21
   VISIBILITY: 1.9 MILES
   WEATHER: -SHRA
   TURBULENCE: FREQ MOD CLEAR AIR FROM 0 TO 27
TEMPORARY WX FROM 03Z TO 12Z
   WINDS: 250 AT 13 GUST 23
   VISIBILITY: 1.9 MILES
   WEATHER: -SHRA
   CLOUDS: 8 SCT
   CLOUDS: 15 BKN WITH CB
   CLOUDS: 100 OVC
   TURBULENCE: FREQ MOD CLEAR AIR FROM 0 TO 27
   COMMENTS: = 

PIREP - Pilot Weather Report
UBBB - Baku,
Updated at 12:30 AM GMT on September 24, 2014 (5:30 AM AZST):
No PIREP is currently available for this location.
AIRMET - Airmens Meteorological Information
UBBB - Baku,
Updated at 12:30 AM GMT on September 24, 2014 (5:30 AM AZST):
No AIRMET is currently available for this location.
SIGMET - Significant Meteorological Information
UBBB - Baku,
Updated at 12:30 AM GMT on September 24, 2014 (5:30 AM AZST):
No SIGMET is currently available for this location.
NOTAM - Notice to Airmen
UBBB - Baku,
Updated at 12:30 AM GMT on September 24, 2014 (5:30 AM AZST):
No NOTAM is currently available for this location.
Forecast Area
UBBB - Baku,
Updated at 12:30 AM GMT on September 24, 2014 (5:30 AM AZST):
No NOTAM is currently available for this location.
Aviation Weather Maps